createdAt,value
2023-04-16T00:00:26.718Z,17.13
2023-04-16T00:03:29.793Z,19.92
2023-04-16T00:06:32.893Z,19.77
2023-04-16T00:09:36.024Z,18.60
2023-04-16T00:12:38.959Z,18.67
2023-04-16T00:15:41.894Z,17.43
2023-04-16T00:18:44.810Z,19.33
2023-04-16T00:21:47.731Z,18.75
2023-04-16T00:24:50.854Z,21.38
2023-04-16T00:27:53.926Z,20.07
2023-04-16T00:30:56.982Z,20.97
2023-04-16T00:34:00.386Z,18.00
2023-04-16T00:37:03.326Z,18.95
2023-04-16T00:40:07.433Z,17.80
2023-04-16T00:43:10.646Z,16.20
2023-04-16T00:46:14.561Z,15.70
2023-04-16T00:49:17.691Z,15.65
2023-04-16T00:52:20.700Z,15.70
2023-04-16T00:55:23.633Z,16.60
2023-04-16T00:58:26.713Z,16.43
2023-04-16T01:01:29.666Z,14.97
2023-04-16T01:04:34.010Z,16.05
2023-04-16T01:07:37.140Z,17.30
2023-04-16T01:10:40.096Z,17.20
2023-04-16T01:13:43.204Z,16.70
2023-04-16T01:16:46.187Z,15.17
2023-04-16T01:19:49.167Z,15.05
2023-04-16T01:22:52.155Z,16.25
2023-04-16T01:25:55.095Z,15.82
2023-04-16T01:28:58.517Z,15.77
2023-04-16T01:32:01.960Z,17.13
2023-04-16T01:35:10.331Z,15.50
2023-04-16T01:38:13.256Z,15.77
2023-04-16T01:41:17.515Z,15.88
2023-04-16T01:44:21.788Z,17.10
2023-04-16T01:47:25.061Z,16.37
2023-04-16T01:50:28.102Z,16.27
2023-04-16T01:53:31.078Z,16.33
2023-04-16T01:56:33.982Z,16.45
2023-04-16T01:59:37.207Z,15.90
2023-04-16T02:02:40.504Z,14.80
2023-04-16T02:05:43.537Z,14.95
2023-04-16T02:08:46.557Z,14.65
2023-04-16T02:11:50.862Z,13.65
2023-04-16T02:14:53.850Z,14.27
2023-04-16T02:17:57.813Z,15.67
2023-04-16T02:21:02.304Z,15.15
2023-04-16T02:24:05.497Z,15.27
2023-04-16T02:27:09.077Z,16.30
2023-04-16T02:30:12.647Z,15.93
2023-04-16T02:33:16.092Z,14.20
2023-04-16T02:36:29.442Z,14.27
2023-04-16T02:39:32.860Z,15.00
2023-04-16T02:42:36.926Z,16.05
2023-04-16T02:45:39.943Z,16.63
2023-04-16T02:48:42.865Z,16.07
2023-04-16T02:51:45.802Z,16.30
2023-04-16T02:54:48.780Z,14.35
2023-04-16T02:57:52.963Z,14.40
2023-04-16T03:00:56.125Z,15.17
2023-04-16T03:03:59.319Z,14.10
2023-04-16T03:07:02.249Z,17.73
2023-04-16T03:10:06.280Z,13.82
2023-04-16T03:13:09.232Z,18.13
2023-04-16T03:16:12.224Z,13.67
2023-04-16T03:19:15.494Z,15.37
2023-04-16T03:22:19.894Z,15.32
2023-04-16T03:25:22.906Z,14.32
2023-04-16T03:28:26.319Z,14.27
2023-04-16T03:31:29.648Z,13.17
2023-04-16T03:34:33.973Z,14.33
2023-04-16T03:37:37.063Z,15.52
2023-04-16T03:40:40.072Z,13.60
2023-04-16T03:43:43.089Z,16.65
2023-04-16T03:46:46.895Z,15.37
2023-04-16T03:49:49.947Z,15.00
2023-04-16T03:52:53.906Z,12.20
2023-04-16T03:55:57.056Z,13.02
2023-04-16T03:59:00.342Z,11.85
2023-04-16T04:02:03.608Z,15.73
2023-04-16T04:05:08.599Z,13.83
2023-04-16T04:08:13.481Z,12.18
2023-04-16T04:11:17.506Z,14.25
2023-04-16T04:14:20.800Z,13.65
2023-04-16T04:17:23.797Z,12.83
2023-04-16T04:20:27.205Z,13.00
2023-04-16T04:23:30.326Z,11.48
2023-04-16T04:26:33.349Z,12.35
2023-04-16T04:29:36.328Z,12.02
2023-04-16T04:32:39.389Z,11.97
2023-04-16T04:35:42.335Z,11.97
2023-04-16T04:38:45.301Z,14.32
2023-04-16T04:41:48.746Z,14.88
2023-04-16T04:44:51.823Z,14.50
2023-04-16T04:47:54.955Z,16.07
2023-04-16T04:50:58.173Z,17.97
2023-04-16T04:54:01.198Z,14.35
2023-04-16T04:57:04.239Z,13.68
2023-04-16T05:00:08.150Z,11.90
2023-04-16T05:03:21.328Z,12.53
2023-04-16T05:06:24.400Z,13.37
2023-04-16T05:09:27.317Z,19.98
2023-04-16T05:12:30.282Z,14.20
2023-04-16T05:15:33.199Z,13.35
2023-04-16T05:18:36.181Z,14.97
2023-04-16T05:21:39.143Z,11.77
2023-04-16T05:24:42.102Z,14.23
2023-04-16T05:27:45.108Z,15.25
2023-04-16T05:30:48.188Z,11.52
2023-04-16T05:33:51.175Z,12.43
2023-04-16T05:36:54.111Z,12.93
2023-04-16T05:39:57.028Z,12.15
2023-04-16T05:43:00.156Z,12.98
2023-04-16T05:46:03.198Z,12.88
2023-04-16T05:49:06.178Z,13.50
2023-04-16T05:52:09.171Z,14.67
2023-04-16T05:55:12.177Z,14.75
2023-04-16T05:58:15.137Z,11.93
2023-04-16T06:01:18.318Z,11.95
2023-04-16T06:04:21.350Z,12.93
2023-04-16T06:07:24.380Z,12.93
2023-04-16T06:10:27.417Z,13.07
2023-04-16T06:13:30.372Z,14.85
2023-04-16T06:16:33.393Z,13.57
2023-04-16T06:19:36.507Z,12.70
2023-04-16T06:22:39.500Z,10.27
2023-04-16T06:25:42.451Z,12.40
2023-04-16T06:28:45.429Z,15.02
2023-04-16T06:31:49.244Z,15.65
2023-04-16T06:34:52.261Z,17.50
2023-04-16T06:37:55.569Z,12.80
2023-04-16T06:40:59.654Z,12.95
2023-04-16T06:44:02.699Z,11.50
2023-04-16T06:47:05.892Z,12.20
2023-04-16T06:50:09.345Z,9.63
2023-04-16T06:53:12.262Z,9.97
2023-04-16T06:56:15.167Z,10.00
2023-04-16T06:59:18.134Z,10.55
2023-04-16T07:02:21.166Z,10.02
2023-04-16T07:05:24.202Z,9.97
2023-04-16T07:08:27.202Z,12.13
2023-04-16T07:11:30.266Z,9.85
2023-04-16T07:14:33.246Z,10.00
2023-04-16T07:17:36.233Z,9.73
2023-04-16T07:20:39.167Z,8.13
2023-04-16T07:23:42.371Z,9.80
2023-04-16T07:26:45.549Z,9.27
2023-04-16T07:29:50.351Z,8.20
2023-04-16T07:32:54.996Z,10.48
2023-04-16T07:35:57.943Z,10.20
2023-04-16T07:39:01.060Z,9.50
2023-04-16T07:42:04.061Z,8.20
2023-04-16T07:45:07.651Z,9.35
2023-04-16T07:48:11.010Z,9.93
2023-04-16T07:51:14.036Z,8.33
2023-04-16T07:54:17.189Z,7.63
2023-04-16T07:57:20.550Z,8.02
2023-04-16T08:00:23.596Z,7.80
2023-04-16T08:03:26.852Z,7.30
2023-04-16T08:06:30.033Z,6.70
2023-04-16T08:09:32.991Z,7.80
2023-04-16T08:12:36.262Z,8.82
2023-04-16T08:15:39.252Z,9.60
2023-04-16T08:18:42.188Z,7.47
2023-04-16T08:21:45.489Z,7.17
2023-04-16T08:24:48.491Z,12.43
2023-04-16T08:27:51.559Z,7.03
2023-04-16T08:30:54.532Z,12.70
2023-04-16T08:33:57.496Z,10.57
2023-04-16T08:37:00.532Z,8.93
2023-04-16T08:40:04.023Z,6.90
2023-04-16T08:43:10.553Z,6.95
2023-04-16T08:46:13.653Z,7.30
2023-04-16T08:49:20.479Z,7.78
2023-04-16T08:52:23.400Z,7.47
2023-04-16T08:55:41.195Z,7.03
2023-04-16T08:58:44.138Z,6.55
2023-04-16T09:01:49.153Z,8.45
2023-04-16T09:04:52.881Z,6.40
2023-04-16T09:07:55.919Z,7.13
2023-04-16T09:10:58.847Z,7.53
2023-04-16T09:14:01.840Z,6.72
2023-04-16T09:17:04.790Z,6.65
2023-04-16T09:20:12.594Z,8.70
2023-04-16T09:23:15.614Z,6.80
2023-04-16T09:26:18.626Z,7.07
2023-04-16T09:29:34.480Z,8.15
2023-04-16T09:32:37.498Z,7.00
2023-04-16T09:35:49.289Z,7.43
2023-04-16T09:38:53.680Z,6.70
2023-04-16T09:41:57.931Z,6.63
2023-04-16T09:45:03.311Z,8.60
2023-04-16T09:48:07.983Z,6.75
2023-04-16T09:51:10.932Z,7.82
2023-04-16T09:54:13.975Z,7.43
2023-04-16T09:57:24.558Z,6.37
2023-04-16T10:00:27.637Z,6.20
2023-04-16T10:03:34.747Z,6.72
2023-04-16T10:06:37.972Z,5.75
2023-04-16T10:09:41.607Z,5.67
2023-04-16T10:12:44.587Z,7.63
2023-04-16T10:15:47.483Z,6.32
2023-04-16T10:18:50.702Z,6.32
2023-04-16T10:21:54.853Z,6.63
2023-04-16T10:24:58.137Z,7.60
2023-04-16T10:28:01.082Z,5.80
2023-04-16T10:31:08.742Z,5.68
2023-04-16T10:34:11.984Z,6.43
2023-04-16T10:37:18.093Z,6.10
2023-04-16T10:40:27.735Z,5.90
2023-04-16T10:43:39.015Z,6.27
2023-04-16T10:46:51.078Z,5.25
2023-04-16T10:49:53.993Z,5.95
2023-04-16T10:53:24.130Z,5.40
2023-04-16T10:56:31.466Z,6.83
2023-04-16T10:59:35.703Z,5.33
2023-04-16T11:02:38.822Z,5.15
2023-04-16T11:05:50.959Z,6.35
2023-04-16T11:08:55.439Z,7.13
2023-04-16T11:11:58.513Z,6.23
2023-04-16T11:15:03.573Z,4.90
2023-04-16T11:18:07.202Z,7.22
2023-04-16T11:21:11.078Z,5.38
2023-04-16T11:24:14.068Z,6.20
2023-04-16T11:27:17.054Z,6.00
2023-04-16T11:30:28.602Z,5.03
2023-04-16T11:33:31.600Z,5.18
2023-04-16T11:36:50.643Z,6.07
2023-04-16T11:39:53.905Z,5.10
2023-04-16T11:43:00.676Z,7.03
2023-04-16T11:46:16.204Z,4.57
2023-04-16T11:49:30.932Z,4.63
2023-04-16T11:52:34.160Z,5.53
2023-04-16T11:55:45.565Z,5.90
2023-04-16T11:59:10.412Z,4.60
2023-04-16T12:02:13.737Z,5.83
2023-04-16T12:05:37.312Z,5.65
2023-04-16T12:08:40.322Z,6.07
2023-04-16T12:11:43.653Z,6.80
2023-04-16T12:14:52.717Z,5.70
2023-04-16T12:18:16.453Z,5.40
2023-04-16T12:21:19.409Z,5.38
2023-04-16T12:24:24.242Z,5.38
2023-04-16T12:27:28.684Z,6.00
2023-04-16T12:30:31.727Z,5.47
2023-04-16T12:33:34.917Z,4.57
2023-04-16T12:36:38.351Z,5.00
2023-04-16T12:39:41.396Z,4.82
2023-04-16T12:42:44.329Z,4.50
2023-04-16T12:45:47.470Z,5.03
2023-04-16T12:48:50.480Z,5.57
2023-04-16T12:51:53.516Z,10.30
2023-04-16T12:54:56.496Z,4.85
2023-04-16T12:57:59.470Z,6.03
2023-04-16T13:01:02.500Z,6.23
2023-04-16T13:04:06.024Z,5.77
2023-04-16T13:07:09.052Z,5.25
2023-04-16T13:10:12.032Z,5.88
2023-04-16T13:13:16.508Z,5.20
2023-04-16T13:16:19.632Z,6.90
2023-04-16T13:19:22.628Z,5.37
2023-04-16T13:22:25.548Z,4.53
2023-04-16T13:25:29.664Z,4.50
2023-04-16T13:28:32.613Z,4.60
2023-04-16T13:31:35.891Z,6.03
2023-04-16T13:34:38.824Z,5.20
2023-04-16T13:37:41.786Z,4.68
2023-04-16T13:40:45.388Z,4.80
2023-04-16T13:43:48.356Z,5.20
2023-04-16T13:46:51.707Z,5.47
2023-04-16T13:49:54.780Z,5.63
2023-04-16T13:52:57.799Z,5.93
2023-04-16T13:56:03.678Z,6.22
2023-04-16T13:59:06.652Z,4.93
2023-04-16T14:02:10.365Z,4.70
2023-04-16T14:05:13.484Z,5.20
2023-04-16T14:08:17.033Z,3.80
2023-04-16T14:11:19.968Z,5.90
2023-04-16T14:14:25.467Z,3.75
2023-04-16T14:17:28.416Z,3.93
2023-04-16T14:20:31.414Z,4.70
2023-04-16T14:23:34.386Z,3.45
2023-04-16T14:26:37.318Z,10.38
2023-04-16T14:29:41.303Z,12.00
2023-04-16T14:32:44.434Z,6.40
2023-04-16T14:35:47.409Z,7.10
2023-04-16T14:38:50.364Z,4.80
2023-04-16T14:41:53.276Z,4.93
2023-04-16T14:44:56.183Z,3.83
2023-04-16T14:47:59.136Z,4.67
2023-04-16T14:51:02.125Z,4.20
2023-04-16T14:54:05.265Z,5.20
2023-04-16T14:57:08.248Z,4.50
2023-04-16T15:00:12.022Z,4.80
2023-04-16T15:03:15.209Z,5.37
2023-04-16T15:06:19.071Z,5.40
2023-04-16T15:09:22.116Z,4.85
2023-04-16T15:12:26.438Z,5.43
2023-04-16T15:15:29.368Z,6.97
2023-04-16T15:18:33.914Z,5.80
2023-04-16T15:21:37.036Z,5.47
2023-04-16T15:24:40.509Z,5.45
2023-04-16T15:27:43.425Z,4.85
2023-04-16T15:30:46.387Z,4.80
2023-04-16T15:33:49.676Z,8.37
2023-04-16T15:36:52.671Z,8.80
2023-04-16T15:39:55.675Z,4.68
2023-04-16T15:42:58.919Z,4.82
2023-04-16T15:46:02.020Z,5.43
2023-04-16T15:49:05.048Z,4.40
2023-04-16T15:52:07.994Z,5.70
2023-04-16T15:55:11.041Z,5.00
2023-04-16T15:58:14.066Z,4.72
2023-04-16T16:01:17.160Z,5.85
2023-04-16T16:04:23.017Z,6.50
2023-04-16T16:07:26.760Z,5.90
2023-04-16T16:10:29.778Z,4.78
2023-04-16T16:13:32.777Z,6.88
2023-04-16T16:16:35.942Z,6.82
2023-04-16T16:19:38.931Z,7.43
2023-04-16T16:22:45.267Z,5.73
2023-04-16T16:25:48.207Z,5.90
2023-04-16T16:28:51.156Z,4.55
2023-04-16T16:31:54.154Z,6.60
2023-04-16T16:34:57.556Z,7.87
2023-04-16T16:38:01.772Z,7.03
2023-04-16T16:41:04.750Z,7.60
2023-04-16T16:44:08.098Z,5.63
2023-04-16T16:47:11.341Z,8.63
2023-04-16T16:50:14.625Z,7.20
2023-04-16T16:53:17.590Z,6.70
2023-04-16T16:56:20.575Z,7.07
2023-04-16T16:59:23.552Z,6.30
2023-04-16T17:02:26.604Z,10.60
2023-04-16T17:05:29.638Z,6.67
2023-04-16T17:08:32.614Z,7.63
2023-04-16T17:11:35.740Z,7.97
2023-04-16T17:14:39.394Z,6.80
2023-04-16T17:17:42.670Z,5.50
2023-04-16T17:20:45.693Z,7.50
2023-04-16T17:23:48.629Z,7.63
2023-04-16T17:26:51.649Z,8.68
2023-04-16T17:30:00.103Z,6.88
2023-04-16T17:33:04.720Z,6.78
2023-04-16T17:36:07.938Z,7.43
2023-04-16T17:39:11.506Z,7.23
2023-04-16T17:42:14.436Z,10.82
2023-04-16T17:45:17.520Z,13.85
2023-04-16T17:48:20.494Z,14.20
2023-04-16T17:51:23.441Z,11.10
2023-04-16T17:54:26.488Z,11.20
2023-04-16T17:57:29.518Z,8.85
2023-04-16T18:00:32.563Z,10.07
2023-04-16T18:03:37.138Z,8.50
2023-04-16T18:06:40.375Z,8.63
2023-04-16T18:09:43.332Z,7.17
2023-04-16T18:12:46.272Z,9.90
2023-04-16T18:15:49.292Z,6.22
2023-04-16T18:18:52.226Z,5.80
2023-04-16T18:21:58.819Z,7.57
2023-04-16T18:25:01.803Z,6.53
2023-04-16T18:28:06.297Z,6.05
2023-04-16T18:31:09.423Z,8.35
2023-04-16T18:34:12.553Z,11.75
2023-04-16T18:37:16.264Z,10.27
2023-04-16T18:40:19.293Z,9.43
2023-04-16T18:43:23.770Z,8.73
2023-04-16T18:46:27.627Z,7.07
2023-04-16T18:49:30.855Z,6.53
2023-04-16T18:52:33.772Z,7.70
2023-04-16T18:55:36.724Z,6.93
2023-04-16T18:58:39.723Z,6.88
2023-04-16T19:01:42.651Z,6.85
2023-04-16T19:04:45.879Z,7.75
2023-04-16T19:07:48.888Z,5.73
2023-04-16T19:10:52.502Z,6.67
2023-04-16T19:13:55.783Z,7.65
2023-04-16T19:16:59.254Z,6.10
2023-04-16T19:20:02.294Z,6.03
2023-04-16T19:23:06.038Z,7.23
2023-04-16T19:26:09.088Z,6.37
2023-04-16T19:29:12.664Z,6.20
2023-04-16T19:32:16.067Z,6.43
2023-04-16T19:35:19.023Z,8.07
2023-04-16T19:38:22.106Z,8.43
2023-04-16T19:41:25.061Z,9.00
2023-04-16T19:44:28.129Z,9.30
2023-04-16T19:47:31.243Z,8.20
2023-04-16T19:50:34.215Z,8.23
2023-04-16T19:53:37.233Z,8.63
2023-04-16T19:56:40.278Z,8.13
2023-04-16T19:59:43.345Z,11.35
2023-04-16T20:02:46.428Z,15.15
2023-04-16T20:05:50.025Z,8.70
2023-04-16T20:08:53.058Z,5.80
2023-04-16T20:11:57.048Z,7.50
2023-04-16T20:15:00.173Z,7.65
2023-04-16T20:18:03.202Z,5.72
2023-04-16T20:21:07.007Z,7.68
2023-04-16T20:24:10.772Z,5.77
2023-04-16T20:27:15.123Z,7.30
2023-04-16T20:30:18.214Z,11.25
2023-04-16T20:33:21.276Z,11.00
2023-04-16T20:36:24.255Z,10.32
2023-04-16T20:39:27.422Z,8.23
2023-04-16T20:42:32.264Z,11.63
2023-04-16T20:45:38.332Z,9.32
2023-04-16T20:48:41.294Z,9.02
2023-04-16T20:51:44.339Z,7.13
2023-04-16T20:54:47.839Z,6.43
2023-04-16T20:57:50.806Z,6.07
2023-04-16T21:00:54.377Z,7.05
2023-04-16T21:03:57.452Z,8.10
2023-04-16T21:07:03.275Z,6.85
2023-04-16T21:10:07.047Z,9.00
2023-04-16T21:13:12.710Z,7.00
2023-04-16T21:16:15.679Z,5.35
2023-04-16T21:19:18.675Z,5.20
2023-04-16T21:22:21.622Z,5.40
2023-04-16T21:25:24.764Z,5.60
2023-04-16T21:28:27.724Z,8.20
2023-04-16T21:31:30.758Z,6.10
2023-04-16T21:34:33.749Z,5.50
2023-04-16T21:37:37.010Z,5.05
2023-04-16T21:40:39.944Z,6.60
2023-04-16T21:43:42.893Z,6.07
2023-04-16T21:46:46.012Z,5.05
2023-04-16T21:49:48.991Z,4.65
2023-04-16T21:52:52.534Z,4.22
2023-04-16T21:55:55.456Z,5.27
2023-04-16T21:58:58.463Z,5.93
2023-04-16T22:02:01.556Z,4.95
2023-04-16T22:05:04.735Z,6.07
2023-04-16T22:08:23.505Z,5.57
2023-04-16T22:11:27.347Z,5.20
2023-04-16T22:14:31.933Z,4.50
2023-04-16T22:17:35.361Z,6.90
2023-04-16T22:20:39.125Z,5.15
2023-04-16T22:23:42.262Z,5.22
2023-04-16T22:26:45.408Z,5.20
2023-04-16T22:29:48.406Z,5.93
2023-04-16T22:32:51.381Z,4.97
2023-04-16T22:35:54.363Z,5.57
2023-04-16T22:38:57.315Z,5.32
2023-04-16T22:42:00.713Z,5.83
2023-04-16T22:45:04.609Z,5.50
2023-04-16T22:48:07.848Z,5.22
2023-04-16T22:51:10.929Z,5.82
2023-04-16T22:54:14.157Z,4.97
2023-04-16T22:57:21.059Z,5.67
2023-04-16T23:00:24.919Z,5.43
2023-04-16T23:03:28.010Z,4.72
2023-04-16T23:06:31.617Z,5.25
2023-04-16T23:09:34.623Z,4.72
2023-04-16T23:12:37.689Z,5.00
2023-04-16T23:15:40.818Z,4.73
2023-04-16T23:18:43.775Z,5.28
2023-04-16T23:21:46.754Z,5.40
2023-04-16T23:24:49.717Z,5.40
2023-04-16T23:27:52.680Z,5.33
2023-04-16T23:30:55.762Z,7.53
2023-04-16T23:33:58.715Z,5.72
2023-04-16T23:37:01.744Z,5.72
2023-04-16T23:40:05.108Z,4.97
2023-04-16T23:43:08.023Z,4.67
2023-04-16T23:46:11.421Z,4.53
2023-04-16T23:49:14.386Z,5.75
2023-04-16T23:52:17.298Z,6.50
2023-04-16T23:55:20.420Z,5.75
2023-04-16T23:58:23.419Z,5.40
